| Date | Time | Temp. (oF) | Dew Point (oF) | Rel. Hum. (%) | Press. (in.) | Wind Dir. | Wind Speed (mph) | Hourly Rainfall (in.) |
|
|---|---|---|---|---|---|---|---|---|---|
| 1 | 06/29 | 00:00 | 75 | 74 | 97 | 30.02 | WNW | 3 | 0.00 |
| 2 | 06/28 | 23:00 | 75 | 74 | 99 | 30.02 | S | 7 | 0.00 |
| 3 | 06/28 | 22:00 | 74 | 73 | 99 | 30.03 | S | 7 | 0.02 |
| 4 | 06/28 | 21:00 | 75 | 73 | 94 | 30.01 | S | 5 | 0.07 |
| 5 | 06/28 | 20:00 | 81 | 74 | 80 | 30.00 | S | 4 | 0.00 |
| 6 | 06/28 | 19:00 | 82 | 72 | 73 | 30.00 | S | 6 | 0.00 |
| 7 | 06/28 | 18:00 | 85 | 75 | 73 | 29.98 | SSE | 5 | 0.00 |
| 8 | 06/28 | 17:00 | 89 | 74 | 63 | 29.97 | SSW | 10 | 0.00 |
| 9 | 06/28 | 16:00 | 92 | 77 | 63 | 29.98 | SW | 10 | 0.00 |
| 10 | 06/28 | 15:00 | 91 | 75 | 61 | 30.02 | SSE | 7 | 0.00 |
| 11 | 06/28 | 14:00 | 90 | 76 | 64 | 30.04 | SSE | 5 | 0.00 |
| 12 | 06/28 | 13:00 | 89 | 78 | 71 | 30.06 | SSE | 7 | 0.00 |
| 13 | 06/28 | 12:00 | 86 | 77 | 77 | 30.08 | SSE | 3 | 0.00 |
| 14 | 06/28 | 11:00 | 84 | 77 | 80 | 30.09 | S | 2 | 0.00 |
| 15 | 06/28 | 10:00 | 81 | 77 | 88 | 30.11 | E | 3 | 0.00 |
| 16 | 06/28 | 09:00 | 77 | 76 | 98 | 30.13 | SW | 3 | 0.00 |
| 17 | 06/28 | 08:00 | 74 | 73 | 100 | 30.13 | S | 2 | 0.00 |
| 18 | 06/28 | 07:00 | 73 | 72 | 100 | 30.14 | S | 1 | 0.00 |
| 19 | 06/28 | 06:00 | 73 | 72 | 100 | 30.13 | S | 0 | 0.00 |
| 20 | 06/28 | 05:00 | 73 | 72 | 100 | 30.12 | SSW | 1 | 0.00 |
| 21 | 06/28 | 04:00 | 73 | 72 | 100 | 30.12 | NNW | 0 | 0.01 |
| 22 | 06/28 | 03:00 | 74 | 73 | 100 | 30.13 | SW | 2 | 0.00 |
| 23 | 06/28 | 02:00 | 74 | 73 | 100 | 30.12 | WNW | 0 | 0.00 |
| 24 | 06/28 | 01:00 | 74 | 73 | 100 | 30.12 | NW | 0 | 0.00 |